Time;durP1;ratioP1;P1;durP2;ratioP2;P2;SDS_P1;SDS_P2;PMS_P1;PMS_P2;Temp;Humidity;BMP_temperature;BMP_pressure;BME280_temperature;BME280_humidity;BME280_pressure;Samples;Min_cycle;Max_cycle;Signal;HPM_P1;HPM_P2
2022/03/05 00:01:02;;;;;;;15.55;9.90;;;2.20;76.10;;;;;;5133374;27;20558;-70
2022/03/05 00:03:29;;;;;;;13.35;9.75;;;2.20;76.10;;;;;;5133477;27;20200;-70
2022/03/05 00:05:55;;;;;;;20.45;11.75;;;2.10;76.20;;;;;;5133524;27;20204;-70
2022/03/05 00:08:23;;;;;;;15.10;10.32;;;2.10;76.20;;;;;;5133015;27;20273;-69
2022/03/05 00:10:50;;;;;;;14.25;9.98;;;2.20;76.30;;;;;;5133350;27;20204;-70
2022/03/05 00:13:18;;;;;;;15.43;10.73;;;2.10;76.50;;;;;;5133461;27;20231;-69
2022/03/05 00:15:47;;;;;;;15.05;10.88;;;2.10;76.60;;;;;;5133113;27;20296;-70
2022/03/05 00:18:14;;;;;;;15.65;10.55;;;2.10;77.00;;;;;;5133236;28;20213;-70
2022/03/05 00:20:41;;;;;;;15.82;9.93;;;2.10;77.30;;;;;;5133141;28;20727;-70
2022/03/05 00:23:08;;;;;;;16.80;10.38;;;2.10;77.50;;;;;;5133656;27;20569;-70
2022/03/05 00:25:37;;;;;;;15.27;10.95;;;2.00;77.50;;;;;;5133508;28;20574;-70
2022/03/05 00:28:04;;;;;;;15.02;11.10;;;2.00;77.50;;;;;;5133147;28;20205;-71
2022/03/05 00:30:32;;;;;;;15.75;10.75;;;2.00;77.40;;;;;;5133216;28;20200;-69
2022/03/05 00:32:59;;;;;;;13.75;10.50;;;2.00;77.70;;;;;;5133275;28;20712;-69
2022/03/05 00:35:26;;;;;;;16.20;10.23;;;2.10;77.60;;;;;;5133158;28;20295;-69
2022/03/05 00:37:53;;;;;;;12.68;9.85;;;2.00;77.40;;;;;;5133105;28;20277;-70
2022/03/05 00:40:20;;;;;;;19.98;11.40;;;2.10;77.50;;;;;;5133053;27;20220;-70
2022/03/05 00:42:46;;;;;;;15.32;10.60;;;2.10;77.60;;;;;;5133630;28;20291;-69
2022/03/05 00:45:13;;;;;;;17.75;10.02;;;2.10;78.00;;;;;;5133295;28;20287;-69
2022/03/05 00:47:41;;;;;;;17.73;10.75;;;2.10;78.10;;;;;;5133026;28;20741;-70
2022/03/05 00:50:09;;;;;;;18.58;10.93;;;2.00;78.10;;;;;;5132645;28;20769;-71
2022/03/05 00:52:37;;;;;;;15.95;11.00;;;2.00;78.60;;;;;;5133043;28;20304;-71
2022/03/05 00:55:06;;;;;;;20.08;12.38;;;2.00;78.90;;;;;;5133253;28;20200;-70
2022/03/05 00:57:33;;;;;;;17.08;11.32;;;1.90;79.30;;;;;;5132248;27;20205;-69
2022/03/05 01:00:00;;;;;;;15.82;11.25;;;1.90;79.70;;;;;;5132480;28;20217;-70
2022/03/05 01:02:26;;;;;;;15.73;10.52;;;1.90;79.90;;;;;;5132661;28;20201;-70
2022/03/05 01:04:55;;;;;;;15.75;11.02;;;1.90;80.10;;;;;;5132640;28;20659;-70
2022/03/05 01:07:21;;;;;;;15.63;11.52;;;1.90;79.90;;;;;;5132807;27;20568;-69
2022/03/05 01:09:48;;;;;;;18.00;12.25;;;1.90;80.10;;;;;;5132568;28;20220;-70
2022/03/05 01:12:15;;;;;;;18.13;11.65;;;1.90;80.70;;;;;;5132528;27;20204;-68
2022/03/05 01:14:42;;;;;;;14.20;10.50;;;1.80;81.00;;;;;;5132723;28;20287;-68
2022/03/05 01:17:09;;;;;;;15.40;10.80;;;1.80;80.80;;;;;;5132464;28;20209;-68
2022/03/05 01:19:36;;;;;;;14.02;10.40;;;1.70;81.00;;;;;;5133668;28;20683;-69
2022/03/05 01:22:05;;;;;;;14.85;9.68;;;1.70;81.40;;;;;;5134218;27;20203;-69
2022/03/05 01:24:32;;;;;;;16.92;10.38;;;1.70;81.60;;;;;;5137189;27;20253;-69
2022/03/05 01:26:58;;;;;;;14.57;9.52;;;1.70;81.20;;;;;;5137528;27;20213;-69
2022/03/05 01:29:25;;;;;;;13.68;9.35;;;1.60;81.20;;;;;;5137478;27;20228;-69
2022/03/05 01:31:53;;;;;;;14.80;9.93;;;1.70;81.80;;;;;;5137561;27;20620;-69
2022/03/05 01:34:20;;;;;;;13.82;9.23;;;1.70;81.50;;;;;;5137767;27;20311;-70
2022/03/05 01:36:46;;;;;;;15.60;10.02;;;1.70;81.50;;;;;;5137756;27;20235;-69
2022/03/05 01:39:16;;;;;;;13.82;9.10;;;1.70;81.50;;;;;;5137374;27;20217;-69
2022/03/05 01:41:45;;;;;;;14.25;9.27;;;1.80;81.90;;;;;;5137319;27;20571;-69
2022/03/05 01:44:12;;;;;;;15.50;9.32;;;1.70;81.80;;;;;;5137370;27;20203;-69
2022/03/05 01:46:40;;;;;;;14.70;10.13;;;1.80;81.90;;;;;;5137523;27;20615;-69
2022/03/05 01:49:09;;;;;;;13.27;9.50;;;1.70;82.30;;;;;;5137359;27;20243;-69
2022/03/05 01:51:37;;;;;;;14.55;8.85;;;1.80;82.00;;;;;;5137128;27;20291;-69
2022/03/05 01:54:04;;;;;;;14.75;9.43;;;1.80;81.80;;;;;;5137212;27;20216;-69
2022/03/05 01:56:32;;;;;;;13.90;10.35;;;1.90;81.70;;;;;;5137476;27;20207;-69
2022/03/05 01:59:00;;;;;;;12.73;9.65;;;1.80;81.40;;;;;;5137271;27;20224;-69
2022/03/05 02:01:28;;;;;;;17.40;11.65;;;1.90;82.30;;;;;;5136825;27;20291;-69
2022/03/05 02:03:56;;;;;;;17.90;12.25;;;1.80;82.20;;;;;;5136849;27;20291;-69
2022/03/05 02:06:24;;;;;;;15.23;9.55;;;1.80;83.00;;;;;;5137287;27;20204;-69
2022/03/05 02:08:51;;;;;;;17.67;10.98;;;1.70;83.20;;;;;;5137023;27;20227;-69
2022/03/05 02:11:18;;;;;;;15.23;9.73;;;1.70;83.90;;;;;;5136834;27;20249;-69
2022/03/05 02:13:46;;;;;;;13.80;9.35;;;1.60;83.30;;;;;;5136817;27;20315;-69
2022/03/05 02:16:13;;;;;;;18.75;10.40;;;1.60;83.30;;;;;;5136873;27;20197;-69
2022/03/05 02:18:45;;;;;;;13.70;9.23;;;1.60;83.60;;;;;;5137104;27;20227;-69
2022/03/05 02:21:13;;;;;;;15.85;9.70;;;1.50;83.30;;;;;;5137056;27;20189;-69
2022/03/05 02:23:40;;;;;;;13.65;10.00;;;1.50;83.60;;;;;;5136768;27;20196;-69
2022/03/05 02:26:07;;;;;;;17.05;9.60;;;1.50;83.40;;;;;;5136711;27;20215;-69
2022/03/05 02:28:35;;;;;;;11.82;8.57;;;1.50;83.80;;;;;;5136598;27;20220;-69
2022/03/05 02:31:02;;;;;;;14.10;9.85;;;1.50;83.90;;;;;;5136246;27;20730;-69
2022/03/05 02:33:29;;;;;;;15.85;10.30;;;1.50;84.30;;;;;;5136466;27;20231;-69
2022/03/05 02:35:56;;;;;;;17.02;10.75;;;1.40;84.50;;;;;;5134925;27;20291;-69
2022/03/05 02:38:25;;;;;;;15.07;9.80;;;1.30;85.00;;;;;;5136202;27;20650;-69
2022/03/05 02:40:53;;;;;;;17.20;10.40;;;1.40;85.80;;;;;;5136293;27;20585;-69
2022/03/05 02:43:22;;;;;;;16.17;10.30;;;1.40;85.80;;;;;;5136058;27;20287;-69
2022/03/05 02:45:50;;;;;;;14.55;10.30;;;1.40;85.60;;;;;;5136250;27;20204;-69
2022/03/05 02:48:18;;;;;;;16.58;10.30;;;1.40;85.70;;;;;;5136065;27;20281;-69
2022/03/05 02:50:47;;;;;;;15.55;9.93;;;1.40;86.60;;;;;;5135673;27;20205;-69
2022/03/05 02:53:13;;;;;;;18.40;10.98;;;1.40;86.50;;;;;;5136117;27;20243;-69
2022/03/05 02:55:43;;;;;;;19.88;11.13;;;1.40;86.60;;;;;;5135814;27;20654;-69
2022/03/05 02:58:10;;;;;;;17.38;11.43;;;1.40;86.80;;;;;;5135849;27;20288;-69
2022/03/05 03:00:37;;;;;;;19.60;11.90;;;1.50;87.30;;;;;;5135572;27;20213;-69
2022/03/05 03:03:04;;;;;;;20.85;13.13;;;1.50;87.20;;;;;;5135903;27;20196;-68
2022/03/05 03:05:31;;;;;;;18.85;12.52;;;1.40;87.50;;;;;;5135749;27;20295;-69
2022/03/05 03:07:57;;;;;;;19.90;12.57;;;1.30;88.80;;;;;;5135735;27;20303;-69
2022/03/05 03:10:24;;;;;;;18.42;11.77;;;1.30;88.80;;;;;;5135685;27;20231;-68
2022/03/05 03:12:52;;;;;;;15.82;9.50;;;1.30;89.10;;;;;;5135805;27;20200;-68
2022/03/05 03:15:19;;;;;;;17.73;11.70;;;1.30;88.80;;;;;;5135408;27;20196;-68
2022/03/05 03:17:47;;;;;;;16.45;10.88;;;1.20;88.70;;;;;;5135674;27;20232;-69
2022/03/05 03:20:17;;;;;;;21.23;12.27;;;1.10;89.30;;;;;;5135342;27;20227;-68
2022/03/05 03:22:45;;;;;;;19.52;12.07;;;1.10;89.80;;;;;;5135422;27;20671;-68
2022/03/05 03:25:12;;;;;;;17.10;13.10;;;1.10;90.10;;;;;;5135227;27;20722;-69
2022/03/05 03:27:39;;;;;;;19.92;12.52;;;1.10;90.30;;;;;;5135110;27;20215;-69
2022/03/05 03:30:10;;;;;;;20.95;12.30;;;1.00;90.40;;;;;;5135090;27;20223;-69
2022/03/05 03:32:37;;;;;;;16.92;10.80;;;1.00;90.40;;;;;;5135436;27;20557;-68
2022/03/05 03:35:05;;;;;;;17.17;10.77;;;1.00;90.50;;;;;;5134909;27;20316;-68
2022/03/05 03:37:32;;;;;;;16.23;11.50;;;1.00;90.60;;;;;;5135840;27;20219;-68
2022/03/05 03:40:00;;;;;;;17.50;10.93;;;1.00;90.60;;;;;;5135194;27;20582;-69
2022/03/05 03:42:28;;;;;;;18.05;10.38;;;1.00;90.70;;;;;;5135412;27;20642;-68
2022/03/05 03:44:55;;;;;;;15.23;10.05;;;1.00;90.70;;;;;;5136092;27;20196;-68
2022/03/05 03:47:23;;;;;;;13.75;10.43;;;1.00;90.60;;;;;;5134445;27;20207;-69
2022/03/05 03:49:51;;;;;;;16.65;9.80;;;1.00;90.70;;;;;;5134924;27;20651;-68
2022/03/05 03:52:19;;;;;;;14.75;10.35;;;1.00;90.80;;;;;;5135964;27;20197;-69
2022/03/05 03:54:47;;;;;;;14.40;10.52;;;0.90;90.70;;;;;;5135166;27;20683;-69
2022/03/05 03:57:14;;;;;;;20.23;10.45;;;0.90;90.80;;;;;;5134797;27;20200;-69
2022/03/05 03:59:41;;;;;;;17.88;10.40;;;0.90;90.90;;;;;;5134892;27;20225;-68
2022/03/05 04:02:08;;;;;;;17.13;11.10;;;0.80;91.00;;;;;;5135004;27;20229;-68
2022/03/05 04:04:36;;;;;;;17.92;10.20;;;0.80;91.20;;;;;;5134684;27;20199;-69
2022/03/05 04:09:48;;;;;;;19.00;11.75;;;0.80;91.30;;;;;;5134405;27;20219;-68
2022/03/05 04:12:15;;;;;;;16.67;10.15;;;0.80;91.40;;;;;;5134677;27;20595;-68
2022/03/05 04:14:42;;;;;;;15.75;10.35;;;0.80;91.50;;;;;;5134590;27;20628;-69
2022/03/05 04:17:09;;;;;;;18.45;11.32;;;0.90;91.60;;;;;;5134759;27;20295;-68
2022/03/05 04:19:37;;;;;;;14.45;10.75;;;0.80;91.40;;;;;;5134552;27;20311;-68
2022/03/05 04:22:04;;;;;;;16.27;10.85;;;0.70;91.50;;;;;;5134565;27;20204;-68
2022/03/05 04:24:31;;;;;;;17.33;11.05;;;0.70;91.60;;;;;;5134549;27;20192;-69
2022/03/05 04:26:58;;;;;;;19.40;11.23;;;0.70;91.70;;;;;;5134396;28;20212;-68
2022/03/05 04:29:25;;;;;;;14.73;10.20;;;0.70;91.70;;;;;;5134497;28;20252;-68
2022/03/05 04:31:52;;;;;;;16.83;10.70;;;0.70;91.90;;;;;;5134346;28;20307;-68
2022/03/05 04:34:19;;;;;;;19.63;11.82;;;0.70;92.00;;;;;;5134400;28;20221;-68
2022/03/05 04:36:47;;;;;;;16.77;11.23;;;0.80;92.20;;;;;;5134541;28;20568;-68
2022/03/05 04:39:14;;;;;;;19.52;11.77;;;0.80;92.00;;;;;;5134121;28;20307;-68
2022/03/05 04:41:41;;;;;;;17.45;11.68;;;0.80;92.00;;;;;;5134030;28;20247;-68
2022/03/05 04:44:08;;;;;;;15.93;10.82;;;0.90;92.20;;;;;;5134272;28;20201;-68
2022/03/05 04:46:36;;;;;;;17.60;12.10;;;0.80;92.30;;;;;;5134447;28;20242;-68
2022/03/05 04:49:03;;;;;;;21.88;13.13;;;0.90;92.20;;;;;;5134364;28;20224;-68
2022/03/05 04:51:30;;;;;;;17.70;11.25;;;0.90;92.30;;;;;;5133645;28;20697;-68
2022/03/05 04:53:58;;;;;;;17.38;11.65;;;0.90;92.30;;;;;;5133987;28;20213;-68
2022/03/05 04:56:26;;;;;;;16.52;12.60;;;0.80;92.30;;;;;;5134359;27;20288;-68
2022/03/05 04:58:53;;;;;;;17.63;11.88;;;0.80;92.40;;;;;;5136563;27;20221;-68
2022/03/05 05:01:20;;;;;;;18.98;12.55;;;0.70;92.50;;;;;;5138236;27;20230;-68
2022/03/05 05:03:47;;;;;;;17.35;11.63;;;0.70;92.80;;;;;;5138313;27;20203;-68
2022/03/05 05:06:14;;;;;;;20.52;12.05;;;0.70;92.90;;;;;;5138225;27;20292;-68
2022/03/05 05:08:41;;;;;;;19.60;12.18;;;0.60;92.90;;;;;;5138141;27;20220;-68
2022/03/05 05:11:09;;;;;;;18.30;12.60;;;0.50;93.10;;;;;;5137749;27;20201;-68
2022/03/05 05:13:38;;;;;;;19.85;12.60;;;0.50;93.40;;;;;;5137845;27;20566;-68
2022/03/05 05:16:06;;;;;;;22.67;13.55;;;0.40;93.70;;;;;;5137870;27;20723;-68
2022/03/05 05:18:33;;;;;;;18.85;13.00;;;0.30;93.90;;;;;;5137857;27;20216;-68
2022/03/05 05:21:00;;;;;;;20.10;12.00;;;0.40;94.10;;;;;;5137798;27;20208;-68
2022/03/05 05:23:27;;;;;;;18.45;11.38;;;0.40;94.10;;;;;;5137969;27;20197;-68
2022/03/05 05:25:54;;;;;;;18.42;12.20;;;0.40;94.20;;;;;;5137852;27;20197;-69
2022/03/05 05:28:22;;;;;;;18.05;12.27;;;0.40;93.90;;;;;;5137766;27;20201;-68
2022/03/05 05:30:49;;;;;;;17.58;11.07;;;0.40;93.90;;;;;;5137533;27;20296;-69
2022/03/05 05:33:16;;;;;;;20.77;12.43;;;0.40;94.00;;;;;;5137770;27;20201;-68
2022/03/05 05:35:43;;;;;;;21.23;12.27;;;0.30;94.00;;;;;;5137429;27;20223;-68
2022/03/05 05:38:10;;;;;;;17.67;11.73;;;0.30;94.00;;;;;;5137520;27;20291;-68
2022/03/05 05:40:36;;;;;;;21.00;11.38;;;0.30;94.10;;;;;;5137483;27;20610;-68
2022/03/05 05:43:03;;;;;;;19.10;11.43;;;0.30;94.30;;;;;;5137561;27;20291;-68
2022/03/05 05:45:31;;;;;;;17.02;11.60;;;0.40;94.20;;;;;;5137398;27;20619;-68
2022/03/05 05:48:01;;;;;;;16.10;10.52;;;0.40;94.20;;;;;;5137192;27;20300;-68
2022/03/05 05:50:28;;;;;;;17.60;10.60;;;0.40;94.20;;;;;;5137173;27;20224;-68
2022/03/05 05:52:55;;;;;;;16.25;11.13;;;0.50;94.30;;;;;;5137336;27;20197;-68
2022/03/05 05:55:22;;;;;;;19.98;11.05;;;0.50;94.40;;;;;;5137188;27;20315;-69
2022/03/05 05:57:49;;;;;;;17.85;12.13;;;0.50;94.50;;;;;;5137347;27;20576;-69
2022/03/05 06:00:16;;;;;;;18.27;12.70;;;0.40;94.50;;;;;;5136762;27;20253;-68
2022/03/05 06:02:44;;;;;;;17.95;11.63;;;0.40;94.70;;;;;;5137166;27;20670;-68
2022/03/05 06:05:11;;;;;;;19.60;12.35;;;0.40;94.90;;;;;;5137099;27;20208;-68
2022/03/05 06:07:38;;;;;;;20.63;12.48;;;0.40;95.00;;;;;;5137080;27;20232;-69
2022/03/05 06:10:05;;;;;;;19.80;12.55;;;0.30;95.10;;;;;;5136545;27;20273;-68
2022/03/05 06:12:32;;;;;;;21.08;12.65;;;0.30;95.00;;;;;;5137040;27;20295;-68
2022/03/05 06:14:59;;;;;;;20.67;12.50;;;0.30;95.20;;;;;;5136704;27;20694;-68
2022/03/05 06:17:26;;;;;;;17.35;11.65;;;0.20;95.30;;;;;;5136857;27;20292;-68
2022/03/05 06:19:54;;;;;;;19.00;12.15;;;0.30;95.40;;;;;;5136333;27;20797;-68
2022/03/05 06:22:21;;;;;;;18.77;11.68;;;0.30;96.30;;;;;;5136775;27;20200;-68
2022/03/05 06:24:47;;;;;;;24.52;13.05;;;0.40;97.10;;;;;;5136844;27;20612;-68
2022/03/05 06:27:14;;;;;;;16.42;10.88;;;0.40;97.70;;;;;;5136348;27;20217;-68
2022/03/05 06:29:41;;;;;;;19.13;12.20;;;0.50;97.20;;;;;;5136358;27;20586;-68
2022/03/05 06:32:09;;;;;;;16.33;11.93;;;0.60;96.20;;;;;;5136553;27;20203;-68
2022/03/05 06:34:36;;;;;;;18.55;11.90;;;0.60;95.90;;;;;;5136452;27;20222;-68
2022/03/05 06:37:04;;;;;;;20.08;13.10;;;0.60;95.60;;;;;;5136471;27;20227;-68
2022/03/05 06:39:31;;;;;;;16.23;11.60;;;0.60;95.70;;;;;;5136347;27;20307;-68
2022/03/05 06:41:58;;;;;;;17.92;12.10;;;0.50;96.00;;;;;;5136204;27;20569;-69
2022/03/05 06:44:25;;;;;;;22.73;12.65;;;0.60;96.20;;;;;;5136295;27;20208;-68
2022/03/05 06:46:52;;;;;;;20.70;13.63;;;0.60;95.90;;;;;;5136602;27;20201;-68
2022/03/05 06:49:18;;;;;;;18.25;12.40;;;0.70;95.80;;;;;;5136203;27;20394;-68
2022/03/05 06:51:45;;;;;;;19.90;12.93;;;0.70;95.90;;;;;;5136043;27;20208;-68
2022/03/05 06:54:13;;;;;;;20.83;13.68;;;0.80;95.90;;;;;;5136011;27;20291;-68
2022/03/05 06:56:40;;;;;;;20.15;13.25;;;0.80;95.60;;;;;;5136044;27;20204;-68
2022/03/05 06:59:08;;;;;;;21.35;13.10;;;0.80;95.60;;;;;;5135706;27;20273;-68
2022/03/05 07:01:35;;;;;;;21.08;13.55;;;0.80;96.00;;;;;;5135818;27;20203;-69
2022/03/05 07:04:01;;;;;;;18.92;12.32;;;0.80;95.90;;;;;;5135921;27;20200;-68
2022/03/05 07:06:28;;;;;;;22.38;13.48;;;0.90;95.90;;;;;;5135748;27;20677;-68
2022/03/05 07:08:55;;;;;;;22.05;13.73;;;1.00;96.00;;;;;;5135660;27;20221;-68
2022/03/05 07:11:23;;;;;;;19.20;13.10;;;1.00;95.80;;;;;;5135340;27;20755;-68
2022/03/05 07:13:50;;;;;;;27.23;14.23;;;1.10;95.90;;;;;;5135475;27;20204;-68
2022/03/05 07:16:17;;;;;;;21.30;14.15;;;1.00;95.90;;;;;;5135588;27;20224;-68
2022/03/05 07:18:44;;;;;;;20.27;13.35;;;1.00;96.40;;;;;;5135541;27;20654;-68
2022/03/05 07:21:10;;;;;;;25.48;14.40;;;1.00;96.60;;;;;;5134819;27;20203;-68
2022/03/05 07:23:37;;;;;;;20.83;13.30;;;1.10;96.40;;;;;;5135324;27;20207;-69
2022/03/05 07:26:04;;;;;;;21.63;14.10;;;1.10;96.40;;;;;;5135376;27;20287;-69
2022/03/05 07:28:33;;;;;;;21.98;14.55;;;1.20;96.40;;;;;;5135601;27;20248;-69
2022/03/05 07:30:59;;;;;;;23.65;14.48;;;1.20;96.20;;;;;;5135448;27;20283;-69
2022/03/05 07:33:27;;;;;;;24.10;15.15;;;1.30;96.20;;;;;;5135440;27;20560;-68
2022/03/05 07:35:54;;;;;;;22.02;13.52;;;1.40;96.30;;;;;;5135243;27;20213;-68
2022/03/05 07:38:21;;;;;;;23.50;14.30;;;1.40;96.10;;;;;;5135183;27;20200;-68
2022/03/05 07:40:48;;;;;;;21.40;13.38;;;1.50;96.10;;;;;;5134992;27;20293;-68
2022/03/05 07:43:14;;;;;;;23.25;14.57;;;1.40;96.50;;;;;;5134993;27;20205;-68
2022/03/05 07:45:43;;;;;;;24.80;15.52;;;1.20;96.30;;;;;;5134973;27;20287;-68
2022/03/05 07:48:09;;;;;;;21.17;14.73;;;1.20;96.30;;;;;;5135114;27;20205;-68
2022/03/05 07:50:37;;;;;;;24.77;14.50;;;1.20;96.50;;;;;;5134908;27;20233;-68
2022/03/05 07:53:04;;;;;;;21.65;14.98;;;1.30;96.60;;;;;;5135024;27;20585;-68
2022/03/05 07:55:31;;;;;;;25.38;16.10;;;1.10;96.50;;;;;;5134964;27;20242;-68
2022/03/05 07:57:58;;;;;;;22.23;15.05;;;1.00;96.50;;;;;;5135293;27;20589;-68
2022/03/05 08:00:24;;;;;;;24.38;14.80;;;1.10;96.70;;;;;;5134595;27;20296;-68
2022/03/05 08:02:53;;;;;;;25.75;15.18;;;1.30;96.80;;;;;;5134938;27;20200;-68
2022/03/05 08:05:20;;;;;;;26.60;16.02;;;1.50;96.60;;;;;;5134813;27;20197;-68
2022/03/05 08:07:47;;;;;;;23.05;15.80;;;1.60;96.30;;;;;;5134804;27;20559;-68
2022/03/05 08:10:15;;;;;;;22.48;15.13;;;1.50;96.20;;;;;;5134616;27;20311;-68
2022/03/05 08:12:42;;;;;;;27.48;16.45;;;1.60;96.30;;;;;;5134673;27;20580;-68
2022/03/05 08:15:10;;;;;;;23.73;15.85;;;1.50;96.50;;;;;;5134713;27;20252;-68
2022/03/05 08:17:37;;;;;;;25.08;16.92;;;1.40;96.60;;;;;;5134758;27;20200;-68
2022/03/05 08:20:07;;;;;;;28.52;16.75;;;1.30;97.00;;;;;;5134242;27;20316;-68
2022/03/05 08:22:33;;;;;;;24.90;16.30;;;1.30;97.10;;;;;;5134704;27;20208;-68
2022/03/05 08:25:00;;;;;;;24.50;15.65;;;1.30;97.50;;;;;;5134629;27;20604;-68
2022/03/05 08:27:27;;;;;;;27.50;15.38;;;1.30;97.00;;;;;;5134480;28;20561;-68
2022/03/05 08:29:54;;;;;;;23.73;17.10;;;1.30;97.50;;;;;;5134432;28;20224;-69
2022/03/05 08:32:21;;;;;;;27.60;16.77;;;1.50;97.30;;;;;;5136061;27;20210;-68
2022/03/05 08:34:47;;;;;;;26.02;16.67;;;1.60;97.20;;;;;;5138586;27;20729;-68
2022/03/05 08:37:15;;;;;;;24.27;15.50;;;1.70;96.70;;;;;;5138903;27;20256;-68
2022/03/05 08:39:42;;;;;;;30.15;17.67;;;1.80;96.60;;;;;;5139874;27;20217;-69
2022/03/05 08:42:10;;;;;;;31.10;17.70;;;1.90;96.60;;;;;;5140457;27;20211;-68
2022/03/05 08:44:37;;;;;;;27.23;16.10;;;2.00;96.60;;;;;;5138758;27;20206;-68
2022/03/05 08:47:04;;;;;;;26.58;17.88;;;2.20;96.50;;;;;;5138547;27;20287;-69
2022/03/05 08:49:31;;;;;;;22.95;16.02;;;2.20;96.10;;;;;;5138571;27;20224;-68
2022/03/05 08:51:58;;;;;;;27.33;16.85;;;2.40;95.70;;;;;;5138266;27;20275;-68
2022/03/05 08:54:26;;;;;;;26.63;17.08;;;2.60;95.50;;;;;;5138556;27;20207;-68
2022/03/05 08:56:53;;;;;;;22.95;15.63;;;2.80;94.90;;;;;;5138410;27;20237;-68
2022/03/05 08:59:20;;;;;;;26.25;16.25;;;2.90;94.50;;;;;;5138316;27;20224;-68
2022/03/05 09:01:47;;;;;;;25.05;15.35;;;3.00;94.50;;;;;;5138269;27;20574;-68
2022/03/05 09:04:14;;;;;;;25.95;16.30;;;3.10;94.10;;;;;;5138323;27;20202;-68
2022/03/05 09:06:41;;;;;;;24.10;15.80;;;3.20;94.00;;;;;;5138277;27;20200;-68
2022/03/05 09:09:08;;;;;;;27.13;15.18;;;3.40;93.90;;;;;;5138055;27;20220;-68
2022/03/05 09:11:38;;;;;;;19.45;13.80;;;3.50;93.10;;;;;;5138088;27;20197;-68
2022/03/05 09:14:04;;;;;;;22.80;13.98;;;3.50;92.40;;;;;;5138104;27;20203;-68
2022/03/05 09:16:32;;;;;;;22.17;14.18;;;3.60;92.10;;;;;;5138023;27;20242;-68
2022/03/05 09:18:59;;;;;;;20.35;13.45;;;3.60;92.40;;;;;;5138238;27;20579;-68
2022/03/05 09:21:26;;;;;;;22.80;14.07;;;3.80;92.30;;;;;;5137994;27;20201;-68
2022/03/05 09:23:53;;;;;;;19.92;12.95;;;3.90;91.40;;;;;;5137694;27;20751;-68
2022/03/05 09:26:19;;;;;;;19.15;13.13;;;4.00;90.90;;;;;;5137748;27;20295;-68
2022/03/05 09:28:48;;;;;;;21.33;13.00;;;4.10;90.40;;;;;;5137514;27;20217;-68
2022/03/05 09:31:14;;;;;;;18.67;12.85;;;4.20;90.40;;;;;;5137579;27;20208;-68
2022/03/05 09:33:41;;;;;;;17.75;12.45;;;4.30;89.10;;;;;;5137787;27;20197;-68
2022/03/05 09:36:09;;;;;;;23.40;12.30;;;4.40;88.00;;;;;;5137793;27;20222;-68
2022/03/05 09:38:36;;;;;;;18.15;12.07;;;4.50;87.40;;;;;;5137607;27;20311;-68
2022/03/05 09:41:04;;;;;;;16.30;11.80;;;4.60;85.50;;;;;;5137267;27;20201;-68
2022/03/05 09:43:31;;;;;;;19.08;12.20;;;4.70;84.00;;;;;;5136563;27;20201;-68
2022/03/05 09:46:00;;;;;;;15.88;10.95;;;4.80;84.00;;;;;;5137531;27;20199;-68
2022/03/05 09:48:28;;;;;;;16.50;10.80;;;4.90;80.80;;;;;;5137489;27;20207;-68
2022/03/05 09:50:55;;;;;;;17.77;10.98;;;5.00;80.50;;;;;;5137341;27;20227;-68
2022/03/05 09:53:27;;;;;;;16.08;10.90;;;5.10;80.20;;;;;;5137356;27;20654;-68
2022/03/05 09:55:54;;;;;;;18.25;11.82;;;5.20;79.50;;;;;;5137316;27;20219;-68
2022/03/05 09:58:21;;;;;;;18.50;13.00;;;5.30;78.50;;;;;;5137261;27;20204;-68
2022/03/05 10:00:48;;;;;;;23.67;14.48;;;5.30;80.50;;;;;;5137091;27;20232;-68
2022/03/05 10:03:16;;;;;;;18.67;13.43;;;5.30;81.50;;;;;;5137323;27;20624;-68
2022/03/05 10:05:43;;;;;;;20.05;13.50;;;5.50;80.20;;;;;;5137067;27;20193;-68
2022/03/05 10:08:12;;;;;;;20.30;13.80;;;5.70;79.40;;;;;;5137158;27;20200;-68
2022/03/05 10:10:45;;;;;;;19.13;12.88;;;5.60;79.10;;;;;;5136717;27;20251;-68
2022/03/05 10:13:26;;;;;;;21.60;14.52;;;5.70;78.90;;;;;;5136990;27;20203;-68
2022/03/05 10:15:54;;;;;;;21.50;14.07;;;5.70;78.40;;;;;;5136799;27;20307;-68
2022/03/05 10:18:30;;;;;;;18.92;13.63;;;6.10;78.40;;;;;;5136674;27;20777;-68
2022/03/05 10:20:59;;;;;;;18.50;12.57;;;6.50;75.80;;;;;;5136658;27;20200;-68
2022/03/05 10:23:26;;;;;;;17.08;12.55;;;6.90;73.80;;;;;;5136829;27;20208;-68
2022/03/05 10:25:55;;;;;;;17.67;12.30;;;7.20;72.20;;;;;;5136443;27;20249;-69
2022/03/05 10:28:23;;;;;;;19.13;12.85;;;7.80;70.90;;;;;;5136831;27;20205;-69
2022/03/05 10:30:51;;;;;;;20.90;13.43;;;8.40;69.60;;;;;;5136541;27;20226;-69
2022/03/05 10:33:26;;;;;;;17.17;13.13;;;8.90;66.60;;;;;;5136578;27;20217;-69
2022/03/05 10:35:54;;;;;;;20.05;13.32;;;9.00;63.00;;;;;;5136523;27;20208;-68
2022/03/05 10:38:21;;;;;;;15.98;12.27;;;9.00;63.50;;;;;;5136422;27;20207;-69
2022/03/05 10:40:54;;;;;;;16.45;12.85;;;9.00;61.70;;;;;;5135999;27;20211;-68
2022/03/05 10:43:21;;;;;;;16.08;12.23;;;9.20;60.70;;;;;;5136422;27;20210;-69
2022/03/05 10:45:50;;;;;;;16.45;11.90;;;9.70;59.20;;;;;;5136216;27;20196;-69
2022/03/05 10:48:26;;;;;;;19.50;13.00;;;9.60;58.60;;;;;;5136249;27;20232;-69
2022/03/05 10:50:59;;;;;;;15.93;13.65;;;9.30;58.80;;;;;;5135769;27;20200;-68
2022/03/05 10:53:38;;;;;;;16.75;12.32;;;8.30;59.10;;;;;;5135884;27;20205;-68
2022/03/05 10:56:28;;;;;;;19.42;12.38;;;8.20;60.40;;;;;;5134700;27;20316;-69
2022/03/05 10:59:08;;;;;;;16.70;11.85;;;8.10;60.50;;;;;;5135975;27;20317;-69
2022/03/05 11:01:37;;;;;;;20.55;12.13;;;7.90;60.10;;;;;;5135850;27;20291;-69
2022/03/05 11:04:05;;;;;;;15.20;12.05;;;7.90;60.90;;;;;;5136313;27;20249;-69
2022/03/05 11:06:37;;;;;;;14.70;10.82;;;7.90;60.70;;;;;;5135846;27;20196;-69
2022/03/05 11:09:04;;;;;;;15.20;11.15;;;8.00;59.60;;;;;;5135856;27;20221;-69
2022/03/05 11:11:32;;;;;;;16.25;11.75;;;7.90;59.50;;;;;;5135423;27;20204;-69
2022/03/05 11:13:59;;;;;;;15.25;11.40;;;8.00;59.00;;;;;;5135734;27;20208;-69
2022/03/05 11:16:26;;;;;;;15.63;11.52;;;7.90;59.00;;;;;;5135679;27;20705;-69
2022/03/05 11:18:53;;;;;;;13.13;10.32;;;7.70;59.00;;;;;;5135411;27;20808;-68
2022/03/05 11:21:20;;;;;;;15.60;11.10;;;7.70;60.00;;;;;;5135258;27;20204;-69
2022/03/05 11:23:49;;;;;;;16.35;11.50;;;8.00;58.80;;;;;;5135656;27;20201;-69
2022/03/05 11:26:16;;;;;;;15.07;11.07;;;8.40;58.60;;;;;;5135584;27;20204;-69
2022/03/05 11:28:48;;;;;;;14.40;10.52;;;9.10;57.10;;;;;;5135497;27;20245;-69
2022/03/05 11:31:17;;;;;;;14.63;10.60;;;9.00;55.70;;;;;;5135144;27;20247;-69
2022/03/05 11:33:45;;;;;;;13.57;10.75;;;8.70;55.50;;;;;;5135319;27;20197;-68
2022/03/05 11:36:32;;;;;;;12.43;9.82;;;9.20;55.70;;;;;;5132023;27;20220;-69
2022/03/05 11:39:15;;;;;;;13.70;10.13;;;9.70;54.70;;;;;;5125571;27;20701;-69
2022/03/05 11:41:50;;;;;;;13.43;9.45;;;9.70;55.50;;;;;;5134709;27;20211;-69
2022/03/05 11:44:18;;;;;;;13.40;9.18;;;10.10;53.40;;;;;;5134098;27;20202;-69
2022/03/05 11:46:46;;;;;;;12.70;9.43;;;9.80;52.70;;;;;;5134322;27;20659;-69
2022/03/05 11:49:14;;;;;;;14.88;9.90;;;9.70;52.90;;;;;;5133924;27;20252;-69
2022/03/05 11:51:55;;;;;;;13.27;9.60;;;9.50;52.40;;;;;;5134001;27;20201;-70
2022/03/05 11:54:24;;;;;;;12.65;10.20;;;9.40;52.60;;;;;;5133686;27;20207;-69
2022/03/05 11:57:08;;;;;;;12.50;9.02;;;9.40;52.30;;;;;;5133839;27;20213;-70
2022/03/05 11:59:36;;;;;;;13.40;9.63;;;9.20;51.60;;;;;;5133583;27;20220;-69
2022/03/05 12:02:03;;;;;;;13.85;10.25;;;9.00;51.80;;;;;;5133234;27;20201;-69
2022/03/05 12:04:32;;;;;;;13.32;10.05;;;9.00;51.90;;;;;;5133762;27;20208;-69
2022/03/05 12:07:01;;;;;;;13.48;10.15;;;9.00;51.40;;;;;;5133447;27;20528;-68
2022/03/05 12:09:44;;;;;;;12.23;9.25;;;8.80;51.70;;;;;;5133478;27;20220;-68
2022/03/05 12:12:13;;;;;;;13.73;9.95;;;8.60;52.20;;;;;;5133559;27;20192;-69
2022/03/05 12:15:11;;;;;;;13.15;9.23;;;8.40;52.40;;;;;;5134146;27;20205;-69
2022/03/05 12:17:50;;;;;;;13.63;9.40;;;8.50;51.90;;;;;;5133633;27;20212;-68
2022/03/05 12:20:23;;;;;;;13.55;9.05;;;8.60;52.10;;;;;;5133091;27;20220;-69
2022/03/05 12:22:57;;;;;;;10.65;8.70;;;9.50;52.20;;;;;;5133670;27;20431;-68
2022/03/05 12:25:27;;;;;;;12.23;9.45;;;11.00;49.10;;;;;;5133808;27;20191;-68
2022/03/05 12:27:55;;;;;;;11.65;9.15;;;11.50;46.20;;;;;;5133060;27;20296;-69
2022/03/05 12:30:25;;;;;;;10.60;8.20;;;11.70;45.10;;;;;;5133296;27;20241;-68
2022/03/05 12:32:52;;;;;;;11.88;9.02;;;11.50;43.70;;;;;;5133324;27;20619;-68
2022/03/05 12:35:21;;;;;;;11.98;9.00;;;11.10;44.90;;;;;;5133601;27;20253;-68
2022/03/05 12:37:49;;;;;;;11.45;8.40;;;10.70;44.90;;;;;;5133342;27;20227;-68
2022/03/05 12:40:15;;;;;;;11.38;8.45;;;10.50;45.70;;;;;;5132955;27;20230;-68
2022/03/05 12:42:46;;;;;;;11.25;8.90;;;10.50;45.50;;;;;;5133610;27;20201;-69
2022/03/05 12:45:18;;;;;;;10.77;8.93;;;10.50;45.30;;;;;;5133620;27;20200;-68